createdAt,value
2022-10-22T00:00:08.857Z,8.27
2022-10-22T00:02:35.789Z,7.05
2022-10-22T00:05:02.584Z,7.88
2022-10-22T00:07:29.490Z,7.90
2022-10-22T00:09:56.243Z,8.60
2022-10-22T00:12:23.048Z,9.02
2022-10-22T00:14:50.047Z,8.40
2022-10-22T00:17:16.959Z,9.48
2022-10-22T00:19:43.742Z,9.35
2022-10-22T00:22:11.517Z,9.60
2022-10-22T00:24:39.519Z,9.52
2022-10-22T00:27:08.369Z,9.10
2022-10-22T00:29:35.391Z,9.50
2022-10-22T00:32:02.723Z,8.93
2022-10-22T00:34:29.487Z,9.38
2022-10-22T00:36:56.200Z,8.68
2022-10-22T00:39:25.262Z,8.20
2022-10-22T00:41:53.848Z,7.80
2022-10-22T00:44:57.948Z,8.68
2022-10-22T00:47:26.009Z,8.00
2022-10-22T00:49:53.249Z,7.88
2022-10-22T00:52:20.231Z,7.90
2022-10-22T00:54:47.082Z,9.70
2022-10-22T00:57:14.780Z,9.60
2022-10-22T00:59:41.603Z,7.60
2022-10-22T01:02:08.483Z,8.38
2022-10-22T01:04:35.190Z,8.63
2022-10-22T01:07:02.167Z,8.13
2022-10-22T01:10:04.210Z,8.15
2022-10-22T01:12:55.355Z,8.80
2022-10-22T01:15:25.483Z,8.35
2022-10-22T01:18:05.794Z,8.68
2022-10-22T01:20:44.771Z,9.23
2022-10-22T01:23:33.436Z,8.02
2022-10-22T01:26:18.503Z,8.98
2022-10-22T01:29:16.218Z,8.88
2022-10-22T01:31:51.962Z,9.02
2022-10-22T01:34:19.248Z,9.73
2022-10-22T01:36:46.820Z,8.93
2022-10-22T01:39:15.541Z,8.88
2022-10-22T01:41:45.524Z,7.78
2022-10-22T01:44:26.815Z,8.95
2022-10-22T01:47:07.797Z,9.40
2022-10-22T01:49:43.561Z,9.38
2022-10-22T01:52:39.609Z,9.25
2022-10-22T01:55:28.855Z,9.18
2022-10-22T01:58:04.178Z,9.60
2022-10-22T02:00:31.212Z,8.98
2022-10-22T02:03:04.426Z,9.00
2022-10-22T02:05:43.358Z,8.35
2022-10-22T02:08:12.602Z,9.23
2022-10-22T02:10:40.953Z,8.40
2022-10-22T02:13:10.700Z,8.75
2022-10-22T02:15:38.668Z,10.07
2022-10-22T02:18:06.691Z,8.15
2022-10-22T02:20:36.091Z,7.38
2022-10-22T02:23:03.659Z,8.18
2022-10-22T02:25:37.208Z,7.88
2022-10-22T02:28:16.521Z,7.60
2022-10-22T02:30:47.654Z,7.43
2022-10-22T02:33:14.313Z,6.68
2022-10-22T02:35:42.056Z,7.90
2022-10-22T02:38:09.631Z,7.07
2022-10-22T02:40:36.598Z,7.53
2022-10-22T02:43:06.924Z,8.52
2022-10-22T02:45:34.740Z,9.63
2022-10-22T02:48:01.624Z,7.63
2022-10-22T02:50:28.420Z,8.32
2022-10-22T02:52:55.207Z,7.38
2022-10-22T02:55:21.915Z,8.07
2022-10-22T02:57:48.714Z,6.70
2022-10-22T03:00:16.175Z,7.82
2022-10-22T03:02:42.912Z,7.38
2022-10-22T03:05:10.321Z,7.65
2022-10-22T03:07:37.101Z,9.43
2022-10-22T03:10:04.462Z,8.13
2022-10-22T03:12:31.598Z,9.48
2022-10-22T03:14:58.401Z,9.07
2022-10-22T03:17:25.127Z,7.43
2022-10-22T03:19:51.821Z,8.35
2022-10-22T03:22:25.257Z,8.02
2022-10-22T03:24:54.873Z,7.78
2022-10-22T03:27:22.421Z,8.10
2022-10-22T03:29:50.879Z,9.35
2022-10-22T03:32:17.609Z,8.40
2022-10-22T03:34:44.496Z,7.65
2022-10-22T03:37:11.695Z,8.52
2022-10-22T03:39:38.739Z,7.68
2022-10-22T03:42:07.071Z,9.60
2022-10-22T03:44:36.100Z,9.73
2022-10-22T03:47:03.013Z,9.13
2022-10-22T03:49:29.847Z,8.98
2022-10-22T03:51:56.686Z,8.75
2022-10-22T03:54:23.388Z,9.18
2022-10-22T03:56:50.125Z,11.02
2022-10-22T03:59:16.886Z,9.40
2022-10-22T04:01:43.653Z,7.95
2022-10-22T04:04:10.445Z,7.75
2022-10-22T04:06:37.252Z,7.72
2022-10-22T04:09:04.169Z,7.18
2022-10-22T04:11:31.148Z,9.63
2022-10-22T04:13:57.957Z,8.68
2022-10-22T04:16:27.394Z,9.75
2022-10-22T04:18:57.387Z,8.98
2022-10-22T04:21:24.604Z,9.88
2022-10-22T04:23:52.762Z,8.30
2022-10-22T04:26:20.008Z,8.52
2022-10-22T04:28:48.177Z,7.63
2022-10-22T04:31:17.367Z,10.10
2022-10-22T04:33:44.119Z,7.85
2022-10-22T04:36:16.532Z,8.30
2022-10-22T04:38:44.819Z,7.65
2022-10-22T04:41:20.572Z,8.25
2022-10-22T04:43:47.870Z,8.20
2022-10-22T04:46:16.336Z,8.48
2022-10-22T04:48:44.348Z,8.95
2022-10-22T04:51:13.364Z,8.38
2022-10-22T04:53:42.938Z,8.98
2022-10-22T04:56:12.109Z,9.10
2022-10-22T04:58:39.133Z,8.52
2022-10-22T05:01:13.348Z,9.32
2022-10-22T05:03:40.320Z,8.90
2022-10-22T05:06:07.737Z,9.15
2022-10-22T05:08:34.807Z,8.73
2022-10-22T05:11:01.651Z,9.73
2022-10-22T05:13:28.401Z,8.60
2022-10-22T05:15:55.154Z,9.52
2022-10-22T05:18:22.673Z,9.35
2022-10-22T05:20:49.543Z,9.48
2022-10-22T05:23:16.344Z,11.65
2022-10-22T05:25:43.047Z,11.60
2022-10-22T05:28:09.800Z,13.00
2022-10-22T05:30:36.568Z,13.90
2022-10-22T05:33:03.351Z,12.82
2022-10-22T05:35:30.147Z,12.40
2022-10-22T05:40:31.047Z,12.25
2022-10-22T05:42:59.127Z,12.27
2022-10-22T05:45:25.933Z,12.95
2022-10-22T05:47:52.630Z,12.95
2022-10-22T05:50:19.339Z,12.95
2022-10-22T05:52:46.088Z,12.25
2022-10-22T05:55:12.792Z,12.80
2022-10-22T05:57:40.724Z,12.35
2022-10-22T06:00:10.560Z,11.13
2022-10-22T06:02:39.898Z,13.25
2022-10-22T06:05:07.212Z,13.85
2022-10-22T06:07:34.092Z,13.23
2022-10-22T06:10:01.163Z,12.77
2022-10-22T06:12:28.016Z,14.30
2022-10-22T06:14:54.808Z,14.20
2022-10-22T06:17:21.544Z,14.18
2022-10-22T06:19:48.231Z,14.77
2022-10-22T06:22:14.965Z,14.93
2022-10-22T06:24:45.013Z,16.83
2022-10-22T06:27:12.110Z,15.85
2022-10-22T06:29:38.847Z,16.67
2022-10-22T06:32:05.741Z,16.70
2022-10-22T06:34:32.633Z,18.13
2022-10-22T06:36:59.562Z,15.32
2022-10-22T06:39:26.395Z,15.50
2022-10-22T06:41:53.155Z,13.65
2022-10-22T06:44:20.554Z,15.82
2022-10-22T06:46:52.057Z,14.50
2022-10-22T06:49:20.596Z,15.15
2022-10-22T06:51:51.816Z,13.60
2022-10-22T06:54:18.808Z,15.98
2022-10-22T06:56:45.630Z,15.77
2022-10-22T06:59:12.367Z,15.23
2022-10-22T07:01:39.422Z,16.38
2022-10-22T07:04:06.774Z,13.95
2022-10-22T07:06:33.584Z,12.52
2022-10-22T07:09:00.515Z,14.27
2022-10-22T07:11:30.286Z,13.82
2022-10-22T07:13:58.865Z,13.88
2022-10-22T07:16:29.676Z,13.52
2022-10-22T07:19:00.501Z,13.70
2022-10-22T07:21:27.599Z,16.67
2022-10-22T07:23:54.654Z,15.18
2022-10-22T07:26:21.673Z,15.25
2022-10-22T07:28:48.611Z,12.13
2022-10-22T07:31:16.210Z,14.63
2022-10-22T07:33:43.165Z,12.65
2022-10-22T07:36:12.593Z,13.68
2022-10-22T07:38:39.492Z,12.80
2022-10-22T07:41:06.275Z,13.30
2022-10-22T07:43:33.038Z,13.65
2022-10-22T07:46:00.432Z,14.02
2022-10-22T07:48:27.404Z,14.30
2022-10-22T07:50:54.218Z,12.35
2022-10-22T07:53:21.671Z,13.32
2022-10-22T07:55:50.102Z,14.10
2022-10-22T07:58:18.389Z,13.15
2022-10-22T08:03:12.751Z,13.05
2022-10-22T08:05:40.025Z,11.38
2022-10-22T08:08:07.391Z,13.25
2022-10-22T08:10:35.093Z,12.90
2022-10-22T08:13:02.016Z,14.82
2022-10-22T08:15:28.907Z,14.18
2022-10-22T08:17:55.696Z,13.93
2022-10-22T08:20:22.566Z,12.00
2022-10-22T08:22:49.322Z,12.88
2022-10-22T08:25:18.068Z,13.80
2022-10-22T08:27:45.767Z,12.13
2022-10-22T08:30:13.352Z,12.07
2022-10-22T08:32:40.622Z,11.60
2022-10-22T08:35:07.808Z,12.00
2022-10-22T08:37:34.543Z,12.48
2022-10-22T08:40:01.325Z,11.43
2022-10-22T08:42:52.867Z,12.80
2022-10-22T08:45:41.525Z,12.73
2022-10-22T08:48:43.691Z,11.02
2022-10-22T08:51:18.471Z,14.02
2022-10-22T08:54:06.268Z,11.65
2022-10-22T08:56:35.821Z,12.75
2022-10-22T08:59:14.904Z,11.35
2022-10-22T09:01:49.648Z,12.82
2022-10-22T09:04:25.596Z,13.93
2022-10-22T09:06:54.459Z,12.93
2022-10-22T09:09:21.688Z,11.43
2022-10-22T09:11:50.564Z,11.70
2022-10-22T09:14:25.230Z,12.18
2022-10-22T09:17:13.896Z,11.25
2022-10-22T09:19:46.611Z,12.18
2022-10-22T09:22:43.479Z,10.77
2022-10-22T09:25:26.562Z,10.75
2022-10-22T09:27:58.256Z,11.70
2022-10-22T09:30:28.505Z,10.77
2022-10-22T09:33:01.240Z,10.57
2022-10-22T09:35:28.216Z,9.77
2022-10-22T09:37:56.554Z,9.80
2022-10-22T09:40:23.829Z,10.13
2022-10-22T09:42:51.419Z,10.45
2022-10-22T09:45:20.587Z,10.82
2022-10-22T09:48:01.428Z,10.77
2022-10-22T09:50:39.761Z,11.00
2022-10-22T09:53:26.533Z,11.48
2022-10-22T09:58:28.739Z,11.05
2022-10-22T10:01:00.819Z,11.18
2022-10-22T10:03:31.412Z,11.13
2022-10-22T10:06:03.064Z,12.60
2022-10-22T10:08:32.977Z,11.07
2022-10-22T10:11:08.777Z,11.65
2022-10-22T10:14:04.172Z,12.45
2022-10-22T10:16:58.496Z,11.98
2022-10-22T10:19:37.584Z,12.05
2022-10-22T10:22:15.419Z,13.27
2022-10-22T10:25:02.055Z,11.88
2022-10-22T10:27:36.756Z,11.57
2022-10-22T10:30:03.468Z,11.32
2022-10-22T10:33:01.052Z,10.80
2022-10-22T10:35:35.010Z,11.90
2022-10-22T10:38:29.862Z,11.60
2022-10-22T10:41:04.656Z,11.70
2022-10-22T10:43:44.585Z,11.65
2022-10-22T10:46:29.538Z,11.32
2022-10-22T10:49:20.124Z,10.00
2022-10-22T10:52:21.318Z,11.35
2022-10-22T10:55:16.248Z,12.45
2022-10-22T10:58:04.264Z,12.02
2022-10-22T11:00:36.719Z,11.00
2022-10-22T11:03:16.181Z,11.27
2022-10-22T11:05:55.712Z,10.85
2022-10-22T11:08:27.207Z,10.63
2022-10-22T11:11:02.020Z,10.25
2022-10-22T11:13:59.602Z,11.35
2022-10-22T11:16:56.927Z,9.52
2022-10-22T11:19:57.826Z,9.38
2022-10-22T11:22:44.428Z,9.18
2022-10-22T11:25:32.328Z,9.80
2022-10-22T11:28:11.308Z,10.50
2022-10-22T11:30:39.182Z,9.10
2022-10-22T11:33:10.662Z,9.18
2022-10-22T11:35:45.295Z,8.75
2022-10-22T11:38:15.525Z,9.13
2022-10-22T11:40:48.964Z,9.43
2022-10-22T11:43:35.617Z,9.00
2022-10-22T11:48:38.513Z,11.75
2022-10-22T11:51:37.834Z,40.97
2022-10-22T11:54:29.777Z,9.23
2022-10-22T11:57:14.732Z,13.40
2022-10-22T11:59:47.518Z,7.60
2022-10-22T12:02:43.154Z,8.75
2022-10-22T12:05:22.397Z,8.10
2022-10-22T12:07:52.059Z,7.95
2022-10-22T12:10:20.918Z,7.75
2022-10-22T12:12:58.772Z,7.28
2022-10-22T12:15:28.999Z,7.25
2022-10-22T12:18:05.214Z,8.75
2022-10-22T12:20:32.182Z,7.60
2022-10-22T12:23:00.117Z,7.50
2022-10-22T12:25:35.704Z,7.38
2022-10-22T12:28:02.957Z,7.68
2022-10-22T12:30:32.320Z,7.82
2022-10-22T12:33:02.998Z,7.35
2022-10-22T12:35:35.714Z,7.90
2022-10-22T12:38:10.935Z,7.50
2022-10-22T12:40:45.784Z,7.60
2022-10-22T12:43:18.151Z,6.75
2022-10-22T12:45:47.194Z,7.05
2022-10-22T12:48:23.291Z,6.88
2022-10-22T12:50:53.272Z,7.32
2022-10-22T12:53:25.393Z,6.40
2022-10-22T12:55:53.648Z,7.57
2022-10-22T12:58:23.195Z,7.20
2022-10-22T13:00:57.404Z,7.35
2022-10-22T13:03:46.096Z,6.70
2022-10-22T13:06:12.991Z,7.28
2022-10-22T13:08:40.452Z,8.05
2022-10-22T13:11:10.556Z,7.65
2022-10-22T13:13:37.552Z,8.48
2022-10-22T13:16:24.312Z,7.90
2022-10-22T13:18:52.451Z,6.82
2022-10-22T13:21:33.027Z,7.82
2022-10-22T13:24:19.690Z,6.90
2022-10-22T13:26:53.260Z,7.30
2022-10-22T13:29:21.634Z,6.75
2022-10-22T13:31:50.280Z,7.10
2022-10-22T13:34:21.797Z,7.75
2022-10-22T13:36:49.127Z,7.93
2022-10-22T13:39:23.919Z,8.70
2022-10-22T13:41:51.657Z,7.60
2022-10-22T13:44:21.773Z,7.80
2022-10-22T13:46:48.626Z,7.43
2022-10-22T13:49:19.987Z,6.70
2022-10-22T13:51:47.108Z,8.35
2022-10-22T13:54:20.671Z,7.55
2022-10-22T13:56:47.420Z,8.23
2022-10-22T13:59:15.368Z,9.02
2022-10-22T14:01:45.406Z,7.35
2022-10-22T14:04:14.761Z,7.43
2022-10-22T14:06:41.572Z,8.40
2022-10-22T14:09:14.106Z,8.52
2022-10-22T14:11:40.913Z,8.88
2022-10-22T14:14:09.216Z,9.13
2022-10-22T14:16:37.331Z,8.73
2022-10-22T14:19:04.824Z,6.65
2022-10-22T14:21:35.691Z,6.53
2022-10-22T14:24:02.503Z,6.22
2022-10-22T14:26:33.135Z,7.07
2022-10-22T14:29:15.984Z,7.57
2022-10-22T14:31:44.515Z,8.35
2022-10-22T14:34:13.898Z,7.72
2022-10-22T14:36:43.638Z,7.97
2022-10-22T14:39:10.801Z,7.20
2022-10-22T14:41:37.670Z,7.25
2022-10-22T14:44:04.685Z,6.80
2022-10-22T14:46:31.479Z,6.05
2022-10-22T14:48:58.280Z,7.07
2022-10-22T14:51:25.067Z,6.55
2022-10-22T14:53:51.870Z,6.65
2022-10-22T14:56:21.484Z,8.18
2022-10-22T14:58:48.965Z,7.20
2022-10-22T15:01:15.705Z,6.88
2022-10-22T15:03:42.625Z,7.13
2022-10-22T15:06:09.354Z,7.18
2022-10-22T15:08:36.255Z,6.22
2022-10-22T15:11:02.994Z,7.40
2022-10-22T15:13:30.122Z,7.80
2022-10-22T15:15:58.141Z,8.50
2022-10-22T15:18:25.832Z,8.25
2022-10-22T15:21:00.656Z,8.00
2022-10-22T15:23:27.821Z,7.95
2022-10-22T15:25:55.137Z,7.38
2022-10-22T15:28:22.456Z,8.40
2022-10-22T15:31:00.106Z,7.50
2022-10-22T15:33:28.028Z,7.40
2022-10-22T15:35:55.552Z,8.05
2022-10-22T15:38:22.658Z,8.02
2022-10-22T15:40:49.448Z,9.40
2022-10-22T15:43:16.138Z,9.18
2022-10-22T15:45:42.856Z,8.43
2022-10-22T15:48:11.406Z,8.35
2022-10-22T15:50:40.250Z,9.05
2022-10-22T15:53:07.087Z,6.93
2022-10-22T15:55:33.850Z,8.00
2022-10-22T15:58:03.360Z,8.25
2022-10-22T16:00:30.982Z,7.72
2022-10-22T16:02:57.658Z,9.90
2022-10-22T16:05:24.580Z,10.65
2022-10-22T16:07:53.168Z,10.55
2022-10-22T16:10:20.002Z,8.38
2022-10-22T16:12:46.861Z,7.30
2022-10-22T16:15:13.704Z,7.38
2022-10-22T16:17:40.514Z,6.90
2022-10-22T16:20:07.819Z,7.85
2022-10-22T16:22:34.743Z,6.68
2022-10-22T16:25:01.499Z,9.43
2022-10-22T16:27:28.314Z,8.38
2022-10-22T16:29:55.211Z,8.50
2022-10-22T16:32:22.102Z,10.63
2022-10-22T16:34:48.868Z,10.77
2022-10-22T16:37:15.644Z,12.90
2022-10-22T16:39:42.334Z,9.63
2022-10-22T16:42:09.077Z,12.43
2022-10-22T16:44:35.763Z,12.75
2022-10-22T16:47:02.575Z,9.70
2022-10-22T16:49:29.301Z,10.65
2022-10-22T16:51:56.031Z,11.65
2022-10-22T16:54:22.876Z,9.57
2022-10-22T16:56:49.635Z,9.63
2022-10-22T16:59:16.409Z,9.80
2022-10-22T17:01:43.204Z,10.80
2022-10-22T17:04:10.414Z,11.43
2022-10-22T17:06:37.276Z,13.10
2022-10-22T17:09:04.766Z,10.85
2022-10-22T17:11:36.276Z,12.05
2022-10-22T17:14:04.978Z,10.35
2022-10-22T17:16:31.809Z,8.63
2022-10-22T17:18:58.619Z,8.65
2022-10-22T17:21:25.515Z,9.23
2022-10-22T17:23:56.570Z,11.48
2022-10-22T17:26:24.205Z,10.95
2022-10-22T17:28:51.052Z,9.45
2022-10-22T17:31:19.699Z,7.50
2022-10-22T17:33:47.176Z,8.48
2022-10-22T17:36:14.388Z,9.75
2022-10-22T17:38:42.222Z,9.07
2022-10-22T17:41:13.814Z,8.27
2022-10-22T17:43:41.565Z,10.18
2022-10-22T17:46:19.937Z,9.98
2022-10-22T17:48:55.042Z,10.50
2022-10-22T17:51:23.440Z,9.02
2022-10-22T17:56:22.171Z,7.72
2022-10-22T17:58:49.375Z,8.95
2022-10-22T18:01:20.028Z,8.65
2022-10-22T18:03:47.101Z,7.22
2022-10-22T18:06:14.584Z,9.70
2022-10-22T18:08:54.878Z,11.10
2022-10-22T18:11:23.867Z,10.45
2022-10-22T18:13:51.873Z,8.80
2022-10-22T18:16:19.324Z,8.13
2022-10-22T18:18:47.629Z,9.65
2022-10-22T18:23:42.643Z,8.02
2022-10-22T18:26:09.496Z,8.57
2022-10-22T18:28:36.683Z,9.57
2022-10-22T18:31:12.637Z,9.70
2022-10-22T18:33:40.741Z,8.65
2022-10-22T18:36:12.332Z,9.95
2022-10-22T18:38:39.447Z,8.57
2022-10-22T18:41:07.615Z,9.30
2022-10-22T18:43:35.459Z,9.75
2022-10-22T18:46:02.447Z,9.70
2022-10-22T18:48:29.177Z,9.27
2022-10-22T18:51:01.797Z,11.07
2022-10-22T18:53:28.976Z,8.60
2022-10-22T18:55:55.720Z,9.68
2022-10-22T18:58:22.563Z,9.20
2022-10-22T19:00:50.562Z,9.15
2022-10-22T19:03:17.740Z,9.85
2022-10-22T19:05:49.438Z,7.80
2022-10-22T19:08:19.140Z,9.27
2022-10-22T19:10:47.136Z,8.68
2022-10-22T19:13:16.223Z,9.27
2022-10-22T19:15:43.254Z,10.00
2022-10-22T19:18:10.296Z,9.13
2022-10-22T19:20:37.129Z,10.07
2022-10-22T19:23:04.328Z,8.07
2022-10-22T19:25:31.062Z,9.30
2022-10-22T19:27:57.820Z,8.70
2022-10-22T19:30:24.640Z,8.90
2022-10-22T19:32:51.386Z,8.55
2022-10-22T19:35:18.176Z,10.35
2022-10-22T19:37:48.310Z,11.25
2022-10-22T19:40:15.426Z,10.48
2022-10-22T19:42:44.374Z,9.98
2022-10-22T19:45:11.643Z,8.45
2022-10-22T19:47:38.364Z,9.35
2022-10-22T19:50:05.772Z,8.43
2022-10-22T19:52:33.303Z,9.38
2022-10-22T19:55:00.004Z,9.73
2022-10-22T19:57:26.720Z,9.35
2022-10-22T19:59:53.432Z,9.63
2022-10-22T20:02:20.196Z,9.57
2022-10-22T20:04:49.989Z,8.50
2022-10-22T20:07:16.923Z,8.70
2022-10-22T20:09:43.666Z,8.65
2022-10-22T20:12:10.370Z,8.15
2022-10-22T20:14:37.510Z,7.68
2022-10-22T20:17:04.494Z,9.70
2022-10-22T20:19:31.363Z,8.75
2022-10-22T20:24:30.024Z,8.80
2022-10-22T20:26:56.763Z,8.27
2022-10-22T20:29:23.474Z,9.43
2022-10-22T20:31:50.236Z,12.45
2022-10-22T20:34:17.276Z,11.75
2022-10-22T20:36:43.991Z,8.80
2022-10-22T20:39:12.921Z,9.02
2022-10-22T20:41:40.572Z,9.60
2022-10-22T20:44:11.559Z,8.23
2022-10-22T20:46:38.427Z,8.98
2022-10-22T20:49:08.001Z,10.15
2022-10-22T20:51:37.953Z,8.77
2022-10-22T20:54:05.779Z,9.07
2022-10-22T20:56:32.656Z,8.50
2022-10-22T20:59:05.689Z,10.57
2022-10-22T21:01:44.671Z,9.02
2022-10-22T21:04:11.539Z,7.07
2022-10-22T21:06:40.225Z,7.15
2022-10-22T21:09:08.193Z,8.07
2022-10-22T21:11:36.186Z,9.50
2022-10-22T21:14:03.573Z,8.63
2022-10-22T21:16:30.448Z,9.02
2022-10-22T21:18:57.510Z,12.10
2022-10-22T21:21:24.196Z,11.07
2022-10-22T21:23:51.560Z,8.55
2022-10-22T21:26:19.798Z,9.23
2022-10-22T21:28:47.204Z,9.70
2022-10-22T21:31:20.532Z,8.75
2022-10-22T21:33:49.760Z,8.20
2022-10-22T21:36:21.616Z,7.75
2022-10-22T21:38:50.605Z,8.40
2022-10-22T21:41:18.812Z,7.80
2022-10-22T21:43:46.116Z,8.38
2022-10-22T21:46:24.214Z,8.15
2022-10-22T21:48:59.287Z,7.90
2022-10-22T21:51:26.104Z,9.00
2022-10-22T21:53:53.354Z,11.73
2022-10-22T21:56:28.575Z,8.50
2022-10-22T21:58:57.472Z,8.38
2022-10-22T22:01:24.678Z,8.35
2022-10-22T22:03:52.410Z,8.52
2022-10-22T22:06:22.027Z,9.13
2022-10-22T22:08:50.075Z,9.73
2022-10-22T22:11:19.314Z,9.20
2022-10-22T22:13:47.260Z,7.63
2022-10-22T22:16:16.428Z,9.15
2022-10-22T22:18:43.188Z,8.35
2022-10-22T22:21:18.387Z,8.13
2022-10-22T22:23:46.566Z,9.25
2022-10-22T22:26:15.053Z,9.30
2022-10-22T22:31:22.933Z,7.68
2022-10-22T22:33:49.627Z,10.10
2022-10-22T22:36:17.528Z,9.85
2022-10-22T22:38:44.212Z,8.77
2022-10-22T22:41:10.957Z,9.55
2022-10-22T22:43:37.780Z,9.10
2022-10-22T22:46:07.663Z,8.38
2022-10-22T22:48:34.749Z,9.85
2022-10-22T22:51:05.767Z,9.32
2022-10-22T22:53:33.820Z,10.02
2022-10-22T22:56:13.142Z,8.75
2022-10-22T22:58:40.765Z,10.85
2022-10-22T23:01:20.375Z,10.82
2022-10-22T23:03:57.927Z,10.75
2022-10-22T23:06:30.039Z,10.77
2022-10-22T23:08:57.264Z,11.30
2022-10-22T23:11:25.968Z,11.88
2022-10-22T23:14:00.535Z,11.98
2022-10-22T23:16:32.196Z,10.90
2022-10-22T23:18:59.933Z,10.23
2022-10-22T23:21:29.824Z,9.95
2022-10-22T23:23:59.127Z,10.57
2022-10-22T23:26:29.179Z,10.23
2022-10-22T23:29:03.495Z,11.30
2022-10-22T23:31:30.238Z,10.75
2022-10-22T23:33:57.348Z,10.45
2022-10-22T23:36:24.112Z,12.73
2022-10-22T23:38:50.888Z,10.45
2022-10-22T23:41:17.972Z,11.57
2022-10-22T23:43:44.756Z,10.75
2022-10-22T23:46:12.693Z,9.98
2022-10-22T23:48:40.246Z,11.05
2022-10-22T23:51:08.802Z,10.00
2022-10-22T23:56:06.919Z,10.77
2022-10-22T23:58:34.313Z,11.30
